sensor_id;sensor_type;location;lat;lon;timestamp;P1;durP1;ratioP1;P2;durP2;ratioP2
2620;SDS011;1320;48.128;11.592;2022-09-01T00:01:55;26.60;;;15.50;;
2620;SDS011;1320;48.128;11.592;2022-09-01T00:04:21;29.80;;;15.77;;
2620;SDS011;1320;48.128;11.592;2022-09-01T00:06:52;27.60;;;16.20;;
2620;SDS011;1320;48.128;11.592;2022-09-01T00:09:20;29.97;;;17.30;;
2620;SDS011;1320;48.128;11.592;2022-09-01T00:11:48;30.40;;;16.03;;
2620;SDS011;1320;48.128;11.592;2022-09-01T00:14:20;26.97;;;15.10;;
2620;SDS011;1320;48.128;11.592;2022-09-01T00:16:49;24.40;;;16.40;;
2620;SDS011;1320;48.128;11.592;2022-09-01T00:19:15;27.37;;;15.33;;
2620;SDS011;1320;48.128;11.592;2022-09-01T00:21:42;29.00;;;15.57;;
2620;SDS011;1320;48.128;11.592;2022-09-01T00:24:10;30.13;;;18.47;;
2620;SDS011;1320;48.128;11.592;2022-09-01T00:26:38;31.80;;;18.40;;
2620;SDS011;1320;48.128;11.592;2022-09-01T00:29:04;28.47;;;18.07;;
2620;SDS011;1320;48.128;11.592;2022-09-01T00:31:30;27.57;;;15.93;;
2620;SDS011;1320;48.128;11.592;2022-09-01T00:33:56;29.37;;;18.23;;
2620;SDS011;1320;48.128;11.592;2022-09-01T00:36:22;27.40;;;17.20;;
2620;SDS011;1320;48.128;11.592;2022-09-01T00:38:48;29.80;;;17.50;;
2620;SDS011;1320;48.128;11.592;2022-09-01T00:41:15;25.73;;;17.40;;
2620;SDS011;1320;48.128;11.592;2022-09-01T00:48:47;28.57;;;18.37;;
2620;SDS011;1320;48.128;11.592;2022-09-01T00:51:18;29.97;;;18.60;;
2620;SDS011;1320;48.128;11.592;2022-09-01T00:53:44;31.33;;;17.57;;
2620;SDS011;1320;48.128;11.592;2022-09-01T00:56:10;27.47;;;16.50;;
2620;SDS011;1320;48.128;11.592;2022-09-01T00:58:37;29.20;;;18.67;;
2620;SDS011;1320;48.128;11.592;2022-09-01T01:01:04;32.83;;;17.80;;
2620;SDS011;1320;48.128;11.592;2022-09-01T01:03:32;28.50;;;17.80;;
2620;SDS011;1320;48.128;11.592;2022-09-01T01:06:00;29.00;;;17.40;;
2620;SDS011;1320;48.128;11.592;2022-09-01T01:08:33;28.93;;;17.80;;
2620;SDS011;1320;48.128;11.592;2022-09-01T01:11:01;27.83;;;16.93;;
2620;SDS011;1320;48.128;11.592;2022-09-01T01:13:29;31.17;;;18.90;;
2620;SDS011;1320;48.128;11.592;2022-09-01T01:16:00;28.90;;;17.50;;
2620;SDS011;1320;48.128;11.592;2022-09-01T01:18:27;27.23;;;17.50;;
2620;SDS011;1320;48.128;11.592;2022-09-01T01:20:58;26.60;;;17.37;;
2620;SDS011;1320;48.128;11.592;2022-09-01T01:24:01;26.67;;;17.57;;
2620;SDS011;1320;48.128;11.592;2022-09-01T01:26:47;29.23;;;15.67;;
2620;SDS011;1320;48.128;11.592;2022-09-01T01:29:13;29.93;;;17.10;;
2620;SDS011;1320;48.128;11.592;2022-09-01T01:31:39;30.77;;;17.60;;
2620;SDS011;1320;48.128;11.592;2022-09-01T01:34:05;27.80;;;16.53;;
2620;SDS011;1320;48.128;11.592;2022-09-01T01:36:33;29.20;;;16.43;;
2620;SDS011;1320;48.128;11.592;2022-09-01T01:39:11;28.40;;;18.03;;
2620;SDS011;1320;48.128;11.592;2022-09-01T01:41:42;27.73;;;17.50;;
2620;SDS011;1320;48.128;11.592;2022-09-01T01:44:13;31.87;;;16.77;;
2620;SDS011;1320;48.128;11.592;2022-09-01T01:46:44;30.50;;;18.93;;
2620;SDS011;1320;48.128;11.592;2022-09-01T01:49:12;26.47;;;15.93;;
2620;SDS011;1320;48.128;11.592;2022-09-01T01:51:44;28.17;;;17.67;;
2620;SDS011;1320;48.128;11.592;2022-09-01T01:54:13;25.80;;;16.63;;
2620;SDS011;1320;48.128;11.592;2022-09-01T01:56:39;32.10;;;17.17;;
2620;SDS011;1320;48.128;11.592;2022-09-01T01:59:06;26.10;;;16.10;;
2620;SDS011;1320;48.128;11.592;2022-09-01T02:01:33;24.87;;;15.93;;
2620;SDS011;1320;48.128;11.592;2022-09-01T02:04:00;34.40;;;16.63;;
2620;SDS011;1320;48.128;11.592;2022-09-01T02:06:30;25.60;;;15.63;;
2620;SDS011;1320;48.128;11.592;2022-09-01T02:08:58;26.43;;;16.07;;
2620;SDS011;1320;48.128;11.592;2022-09-01T02:11:27;24.70;;;15.90;;
2620;SDS011;1320;48.128;11.592;2022-09-01T02:13:53;25.93;;;16.50;;
2620;SDS011;1320;48.128;11.592;2022-09-01T02:16:20;29.73;;;16.33;;
2620;SDS011;1320;48.128;11.592;2022-09-01T02:18:47;24.83;;;15.23;;
2620;SDS011;1320;48.128;11.592;2022-09-01T02:21:15;26.17;;;15.50;;
2620;SDS011;1320;48.128;11.592;2022-09-01T02:23:46;24.27;;;14.23;;
2620;SDS011;1320;48.128;11.592;2022-09-01T02:26:14;28.90;;;15.53;;
2620;SDS011;1320;48.128;11.592;2022-09-01T02:28:43;24.50;;;14.60;;
2620;SDS011;1320;48.128;11.592;2022-09-01T02:31:13;25.03;;;15.60;;
2620;SDS011;1320;48.128;11.592;2022-09-01T02:33:39;25.00;;;16.03;;
2620;SDS011;1320;48.128;11.592;2022-09-01T02:36:09;27.70;;;15.90;;
2620;SDS011;1320;48.128;11.592;2022-09-01T02:38:38;28.83;;;16.97;;
2620;SDS011;1320;48.128;11.592;2022-09-01T02:41:05;31.07;;;15.67;;
2620;SDS011;1320;48.128;11.592;2022-09-01T02:43:31;25.17;;;14.60;;
2620;SDS011;1320;48.128;11.592;2022-09-01T02:45:58;28.20;;;17.40;;
2620;SDS011;1320;48.128;11.592;2022-09-01T02:48:26;27.30;;;17.37;;
2620;SDS011;1320;48.128;11.592;2022-09-01T02:51:00;25.20;;;15.47;;
2620;SDS011;1320;48.128;11.592;2022-09-01T02:53:38;27.80;;;14.93;;
2620;SDS011;1320;48.128;11.592;2022-09-01T02:56:07;27.80;;;16.30;;
2620;SDS011;1320;48.128;11.592;2022-09-01T02:58:36;25.87;;;15.90;;
2620;SDS011;1320;48.128;11.592;2022-09-01T03:01:20;23.23;;;14.47;;
2620;SDS011;1320;48.128;11.592;2022-09-01T03:03:53;26.20;;;14.43;;
2620;SDS011;1320;48.128;11.592;2022-09-01T03:06:20;29.20;;;16.80;;
2620;SDS011;1320;48.128;11.592;2022-09-01T03:08:48;23.93;;;15.27;;
2620;SDS011;1320;48.128;11.592;2022-09-01T03:11:18;28.87;;;16.77;;
2620;SDS011;1320;48.128;11.592;2022-09-01T03:13:45;27.67;;;18.00;;
2620;SDS011;1320;48.128;11.592;2022-09-01T03:16:11;23.77;;;14.73;;
2620;SDS011;1320;48.128;11.592;2022-09-01T03:18:37;25.70;;;15.13;;
2620;SDS011;1320;48.128;11.592;2022-09-01T03:21:04;27.03;;;16.53;;
2620;SDS011;1320;48.128;11.592;2022-09-01T03:23:31;24.17;;;14.10;;
2620;SDS011;1320;48.128;11.592;2022-09-01T03:25:58;25.40;;;15.60;;
2620;SDS011;1320;48.128;11.592;2022-09-01T03:28:25;23.77;;;16.57;;
2620;SDS011;1320;48.128;11.592;2022-09-01T03:30:51;27.07;;;16.70;;
2620;SDS011;1320;48.128;11.592;2022-09-01T03:33:19;25.80;;;15.97;;
2620;SDS011;1320;48.128;11.592;2022-09-01T03:35:46;28.77;;;14.07;;
2620;SDS011;1320;48.128;11.592;2022-09-01T03:38:13;25.13;;;15.33;;
2620;SDS011;1320;48.128;11.592;2022-09-01T03:40:52;26.10;;;15.90;;
2620;SDS011;1320;48.128;11.592;2022-09-01T03:43:23;26.87;;;15.33;;
2620;SDS011;1320;48.128;11.592;2022-09-01T03:45:51;23.73;;;14.43;;
2620;SDS011;1320;48.128;11.592;2022-09-01T03:48:19;25.50;;;16.10;;
2620;SDS011;1320;48.128;11.592;2022-09-01T03:50:46;23.70;;;15.07;;
2620;SDS011;1320;48.128;11.592;2022-09-01T03:53:17;26.47;;;15.43;;
2620;SDS011;1320;48.128;11.592;2022-09-01T03:55:47;29.03;;;18.37;;
2620;SDS011;1320;48.128;11.592;2022-09-01T03:58:14;25.40;;;14.50;;
2620;SDS011;1320;48.128;11.592;2022-09-01T04:00:44;25.60;;;15.13;;
2620;SDS011;1320;48.128;11.592;2022-09-01T04:03:13;21.00;;;13.60;;
2620;SDS011;1320;48.128;11.592;2022-09-01T04:05:46;22.97;;;14.13;;
2620;SDS011;1320;48.128;11.592;2022-09-01T04:08:12;24.17;;;14.43;;
2620;SDS011;1320;48.128;11.592;2022-09-01T04:10:43;24.83;;;15.90;;
2620;SDS011;1320;48.128;11.592;2022-09-01T04:13:13;24.70;;;14.80;;
2620;SDS011;1320;48.128;11.592;2022-09-01T04:15:41;25.73;;;15.73;;
2620;SDS011;1320;48.128;11.592;2022-09-01T04:18:06;25.27;;;14.37;;
2620;SDS011;1320;48.128;11.592;2022-09-01T04:20:43;27.40;;;16.50;;
2620;SDS011;1320;48.128;11.592;2022-09-01T04:26:08;30.20;;;17.37;;
2620;SDS011;1320;48.128;11.592;2022-09-01T04:28:43;27.93;;;17.00;;
2620;SDS011;1320;48.128;11.592;2022-09-01T04:31:16;28.90;;;16.97;;
2620;SDS011;1320;48.128;11.592;2022-09-01T04:33:50;31.33;;;18.97;;
2620;SDS011;1320;48.128;11.592;2022-09-01T04:36:20;29.83;;;17.70;;
2620;SDS011;1320;48.128;11.592;2022-09-01T04:38:52;31.30;;;18.80;;
2620;SDS011;1320;48.128;11.592;2022-09-01T04:41:22;31.53;;;18.50;;
2620;SDS011;1320;48.128;11.592;2022-09-01T04:43:50;28.60;;;17.60;;
2620;SDS011;1320;48.128;11.592;2022-09-01T04:46:20;32.27;;;18.90;;
2620;SDS011;1320;48.128;11.592;2022-09-01T04:48:50;30.50;;;18.20;;
2620;SDS011;1320;48.128;11.592;2022-09-01T04:51:17;32.83;;;17.93;;
2620;SDS011;1320;48.128;11.592;2022-09-01T04:53:44;32.33;;;18.77;;
2620;SDS011;1320;48.128;11.592;2022-09-01T04:56:13;31.00;;;19.70;;
2620;SDS011;1320;48.128;11.592;2022-09-01T04:58:43;26.80;;;17.00;;
2620;SDS011;1320;48.128;11.592;2022-09-01T05:01:20;29.20;;;17.43;;
2620;SDS011;1320;48.128;11.592;2022-09-01T05:03:48;35.83;;;20.37;;
2620;SDS011;1320;48.128;11.592;2022-09-01T05:06:20;31.40;;;18.30;;
2620;SDS011;1320;48.128;11.592;2022-09-01T05:08:47;29.73;;;18.30;;
2620;SDS011;1320;48.128;11.592;2022-09-01T05:11:14;28.83;;;18.50;;
2620;SDS011;1320;48.128;11.592;2022-09-01T05:13:45;26.60;;;18.30;;
2620;SDS011;1320;48.128;11.592;2022-09-01T05:16:13;28.53;;;16.60;;
2620;SDS011;1320;48.128;11.592;2022-09-01T05:18:43;26.00;;;16.40;;
2620;SDS011;1320;48.128;11.592;2022-09-01T05:21:12;26.80;;;16.47;;
2620;SDS011;1320;48.128;11.592;2022-09-01T05:23:40;28.10;;;16.73;;
2620;SDS011;1320;48.128;11.592;2022-09-01T05:26:14;26.13;;;15.37;;
2620;SDS011;1320;48.128;11.592;2022-09-01T05:28:49;28.77;;;17.40;;
2620;SDS011;1320;48.128;11.592;2022-09-01T05:31:19;29.10;;;16.53;;
2620;SDS011;1320;48.128;11.592;2022-09-01T05:33:48;28.27;;;15.60;;
2620;SDS011;1320;48.128;11.592;2022-09-01T05:36:16;26.90;;;15.60;;
2620;SDS011;1320;48.128;11.592;2022-09-01T05:38:45;20.57;;;13.43;;
2620;SDS011;1320;48.128;11.592;2022-09-01T05:41:12;24.63;;;15.77;;
2620;SDS011;1320;48.128;11.592;2022-09-01T05:43:42;26.67;;;15.30;;
2620;SDS011;1320;48.128;11.592;2022-09-01T05:46:10;30.73;;;17.30;;
2620;SDS011;1320;48.128;11.592;2022-09-01T05:48:39;22.50;;;14.60;;
2620;SDS011;1320;48.128;11.592;2022-09-01T05:51:06;24.20;;;14.13;;
2620;SDS011;1320;48.128;11.592;2022-09-01T05:53:32;25.50;;;15.20;;
2620;SDS011;1320;48.128;11.592;2022-09-01T05:55:59;25.27;;;14.40;;
2620;SDS011;1320;48.128;11.592;2022-09-01T05:58:31;26.37;;;15.23;;
2620;SDS011;1320;48.128;11.592;2022-09-01T06:00:58;22.13;;;14.53;;
2620;SDS011;1320;48.128;11.592;2022-09-01T06:03:24;21.77;;;14.30;;
2620;SDS011;1320;48.128;11.592;2022-09-01T06:05:52;25.33;;;13.37;;
2620;SDS011;1320;48.128;11.592;2022-09-01T06:08:19;22.77;;;13.87;;
2620;SDS011;1320;48.128;11.592;2022-09-01T06:10:48;25.83;;;14.33;;
2620;SDS011;1320;48.128;11.592;2022-09-01T06:13:15;23.83;;;15.33;;
2620;SDS011;1320;48.128;11.592;2022-09-01T06:15:43;25.87;;;13.70;;
2620;SDS011;1320;48.128;11.592;2022-09-01T06:18:09;22.80;;;12.70;;
2620;SDS011;1320;48.128;11.592;2022-09-01T06:20:43;26.50;;;14.60;;
2620;SDS011;1320;48.128;11.592;2022-09-01T06:23:11;24.00;;;13.43;;
2620;SDS011;1320;48.128;11.592;2022-09-01T06:25:48;24.60;;;13.73;;
2620;SDS011;1320;48.128;11.592;2022-09-01T06:28:14;24.00;;;14.23;;
2620;SDS011;1320;48.128;11.592;2022-09-01T06:30:41;29.70;;;14.73;;
2620;SDS011;1320;48.128;11.592;2022-09-01T06:33:09;22.37;;;13.83;;
2620;SDS011;1320;48.128;11.592;2022-09-01T06:35:38;23.97;;;14.63;;
2620;SDS011;1320;48.128;11.592;2022-09-01T06:38:06;24.40;;;13.27;;
2620;SDS011;1320;48.128;11.592;2022-09-01T06:40:33;24.20;;;14.07;;
2620;SDS011;1320;48.128;11.592;2022-09-01T06:43:00;24.50;;;15.07;;
2620;SDS011;1320;48.128;11.592;2022-09-01T06:45:31;21.40;;;14.30;;
2620;SDS011;1320;48.128;11.592;2022-09-01T06:47:58;23.97;;;13.13;;
2620;SDS011;1320;48.128;11.592;2022-09-01T06:50:25;25.77;;;12.97;;
2620;SDS011;1320;48.128;11.592;2022-09-01T06:52:52;22.07;;;12.60;;
2620;SDS011;1320;48.128;11.592;2022-09-01T06:55:25;21.43;;;13.13;;
2620;SDS011;1320;48.128;11.592;2022-09-01T06:57:55;19.10;;;12.57;;
2620;SDS011;1320;48.128;11.592;2022-09-01T07:00:22;20.90;;;12.63;;
2620;SDS011;1320;48.128;11.592;2022-09-01T07:02:51;22.70;;;12.90;;
2620;SDS011;1320;48.128;11.592;2022-09-01T07:05:20;23.70;;;14.37;;
2620;SDS011;1320;48.128;11.592;2022-09-01T07:07:49;20.50;;;13.50;;
2620;SDS011;1320;48.128;11.592;2022-09-01T07:10:19;19.73;;;11.50;;
2620;SDS011;1320;48.128;11.592;2022-09-01T07:12:50;21.37;;;11.90;;
2620;SDS011;1320;48.128;11.592;2022-09-01T07:15:16;18.43;;;12.50;;
2620;SDS011;1320;48.128;11.592;2022-09-01T07:17:50;21.37;;;12.00;;
2620;SDS011;1320;48.128;11.592;2022-09-01T07:20:18;20.33;;;13.30;;
2620;SDS011;1320;48.128;11.592;2022-09-01T07:22:46;19.10;;;11.87;;
2620;SDS011;1320;48.128;11.592;2022-09-01T07:25:12;18.20;;;10.90;;
2620;SDS011;1320;48.128;11.592;2022-09-01T07:27:39;18.23;;;11.97;;
2620;SDS011;1320;48.128;11.592;2022-09-01T07:30:08;20.90;;;12.00;;
2620;SDS011;1320;48.128;11.592;2022-09-01T07:32:36;16.47;;;10.30;;
2620;SDS011;1320;48.128;11.592;2022-09-01T07:35:03;22.30;;;12.20;;
2620;SDS011;1320;48.128;11.592;2022-09-01T07:37:30;20.40;;;11.07;;
2620;SDS011;1320;48.128;11.592;2022-09-01T07:39:56;16.70;;;11.13;;
2620;SDS011;1320;48.128;11.592;2022-09-01T07:42:22;16.13;;;11.00;;
2620;SDS011;1320;48.128;11.592;2022-09-01T07:44:48;18.17;;;11.67;;
2620;SDS011;1320;48.128;11.592;2022-09-01T07:47:14;17.33;;;11.27;;
2620;SDS011;1320;48.128;11.592;2022-09-01T07:49:40;20.37;;;11.70;;
2620;SDS011;1320;48.128;11.592;2022-09-01T07:52:06;15.40;;;9.87;;
2620;SDS011;1320;48.128;11.592;2022-09-01T07:54:32;16.77;;;10.13;;
2620;SDS011;1320;48.128;11.592;2022-09-01T07:57:00;14.30;;;9.33;;
2620;SDS011;1320;48.128;11.592;2022-09-01T07:59:26;14.27;;;9.10;;
2620;SDS011;1320;48.128;11.592;2022-09-01T08:01:53;13.70;;;9.57;;
2620;SDS011;1320;48.128;11.592;2022-09-01T08:04:20;13.33;;;8.93;;
2620;SDS011;1320;48.128;11.592;2022-09-01T08:06:46;13.67;;;8.70;;
2620;SDS011;1320;48.128;11.592;2022-09-01T08:09:12;13.80;;;9.60;;
2620;SDS011;1320;48.128;11.592;2022-09-01T08:11:39;15.27;;;9.80;;
2620;SDS011;1320;48.128;11.592;2022-09-01T08:14:05;15.23;;;9.30;;
2620;SDS011;1320;48.128;11.592;2022-09-01T08:16:49;14.70;;;10.40;;
2620;SDS011;1320;48.128;11.592;2022-09-01T08:19:45;16.03;;;10.43;;
2620;SDS011;1320;48.128;11.592;2022-09-01T08:22:12;13.93;;;9.90;;
2620;SDS011;1320;48.128;11.592;2022-09-01T08:24:39;13.20;;;9.97;;
2620;SDS011;1320;48.128;11.592;2022-09-01T08:27:04;13.27;;;8.83;;
2620;SDS011;1320;48.128;11.592;2022-09-01T08:29:30;14.23;;;10.37;;
2620;SDS011;1320;48.128;11.592;2022-09-01T08:31:56;15.23;;;8.70;;
2620;SDS011;1320;48.128;11.592;2022-09-01T08:34:23;13.60;;;9.30;;
2620;SDS011;1320;48.128;11.592;2022-09-01T08:36:49;12.50;;;9.60;;
2620;SDS011;1320;48.128;11.592;2022-09-01T08:39:15;12.57;;;8.37;;
2620;SDS011;1320;48.128;11.592;2022-09-01T08:41:47;12.50;;;8.97;;
2620;SDS011;1320;48.128;11.592;2022-09-01T08:47:14;15.40;;;9.73;;
2620;SDS011;1320;48.128;11.592;2022-09-01T08:49:41;14.33;;;10.50;;
2620;SDS011;1320;48.128;11.592;2022-09-01T08:52:18;15.87;;;10.00;;
2620;SDS011;1320;48.128;11.592;2022-09-01T08:57:51;13.60;;;9.00;;
2620;SDS011;1320;48.128;11.592;2022-09-01T09:00:21;12.50;;;9.50;;
2620;SDS011;1320;48.128;11.592;2022-09-01T09:11:40;11.83;;;8.00;;
2620;SDS011;1320;48.128;11.592;2022-09-01T09:16:39;13.30;;;9.63;;
2620;SDS011;1320;48.128;11.592;2022-09-01T09:21:49;12.40;;;8.47;;
2620;SDS011;1320;48.128;11.592;2022-09-01T09:27:13;12.10;;;9.40;;
2620;SDS011;1320;48.128;11.592;2022-09-01T09:29:51;10.70;;;9.00;;
2620;SDS011;1320;48.128;11.592;2022-09-01T09:32:22;13.27;;;9.53;;
2620;SDS011;1320;48.128;11.592;2022-09-01T09:34:50;12.63;;;9.60;;
2620;SDS011;1320;48.128;11.592;2022-09-01T09:39:45;13.53;;;9.23;;
2620;SDS011;1320;48.128;11.592;2022-09-01T09:42:37;11.47;;;8.20;;
2620;SDS011;1320;48.128;11.592;2022-09-01T09:45:04;12.03;;;8.67;;
2620;SDS011;1320;48.128;11.592;2022-09-01T09:48:04;12.50;;;9.07;;
2620;SDS011;1320;48.128;11.592;2022-09-01T09:50:33;14.93;;;10.00;;
2620;SDS011;1320;48.128;11.592;2022-09-01T09:55:49;12.63;;;9.37;;
2620;SDS011;1320;48.128;11.592;2022-09-01T09:58:16;11.07;;;8.20;;
2620;SDS011;1320;48.128;11.592;2022-09-01T10:00:57;12.60;;;10.77;;
2620;SDS011;1320;48.128;11.592;2022-09-01T10:03:38;14.40;;;10.50;;
2620;SDS011;1320;48.128;11.592;2022-09-01T10:06:27;13.00;;;10.30;;
2620;SDS011;1320;48.128;11.592;2022-09-01T10:09:00;10.77;;;8.60;;
2620;SDS011;1320;48.128;11.592;2022-09-01T10:14:06;10.37;;;7.70;;
2620;SDS011;1320;48.128;11.592;2022-09-01T10:16:46;10.30;;;7.17;;
2620;SDS011;1320;48.128;11.592;2022-09-01T10:19:18;10.73;;;8.17;;
2620;SDS011;1320;48.128;11.592;2022-09-01T10:21:45;14.30;;;8.10;;
2620;SDS011;1320;48.128;11.592;2022-09-01T10:26:56;9.00;;;7.17;;
2620;SDS011;1320;48.128;11.592;2022-09-01T10:31:57;10.50;;;7.20;;
2620;SDS011;1320;48.128;11.592;2022-09-01T10:34:24;8.67;;;6.30;;
2620;SDS011;1320;48.128;11.592;2022-09-01T10:36:56;9.30;;;7.00;;
2620;SDS011;1320;48.128;11.592;2022-09-01T10:39:22;8.73;;;6.07;;
2620;SDS011;1320;48.128;11.592;2022-09-01T10:41:49;7.30;;;5.70;;
2620;SDS011;1320;48.128;11.592;2022-09-01T10:44:24;8.10;;;6.40;;
2620;SDS011;1320;48.128;11.592;2022-09-01T10:46:56;9.43;;;5.40;;
2620;SDS011;1320;48.128;11.592;2022-09-01T10:51:55;8.80;;;5.83;;
2620;SDS011;1320;48.128;11.592;2022-09-01T10:57:07;8.07;;;5.20;;
2620;SDS011;1320;48.128;11.592;2022-09-01T10:59:45;7.80;;;4.73;;
2620;SDS011;1320;48.128;11.592;2022-09-01T11:02:16;7.60;;;5.03;;
2620;SDS011;1320;48.128;11.592;2022-09-01T11:14:58;7.60;;;4.60;;
2620;SDS011;1320;48.128;11.592;2022-09-01T11:30:43;6.90;;;3.70;;
2620;SDS011;1320;48.128;11.592;2022-09-01T11:33:36;9.83;;;4.43;;
2620;SDS011;1320;48.128;11.592;2022-09-01T11:36:15;8.37;;;4.37;;
2620;SDS011;1320;48.128;11.592;2022-09-01T11:38:55;8.33;;;3.90;;
2620;SDS011;1320;48.128;11.592;2022-09-01T11:41:28;7.97;;;3.83;;
2620;SDS011;1320;48.128;11.592;2022-09-01T11:43:59;6.90;;;3.60;;
2620;SDS011;1320;48.128;11.592;2022-09-01T11:46:32;6.53;;;3.50;;
2620;SDS011;1320;48.128;11.592;2022-09-01T11:49:05;6.23;;;3.27;;
2620;SDS011;1320;48.128;11.592;2022-09-01T11:51:41;6.27;;;3.70;;
2620;SDS011;1320;48.128;11.592;2022-09-01T11:54:10;6.00;;;3.40;;
2620;SDS011;1320;48.128;11.592;2022-09-01T11:56:37;7.33;;;3.37;;
2620;SDS011;1320;48.128;11.592;2022-09-01T11:59:03;6.23;;;3.73;;
2620;SDS011;1320;48.128;11.592;2022-09-01T12:03:54;5.17;;;3.10;;
2620;SDS011;1320;48.128;11.592;2022-09-01T12:06:24;5.87;;;3.40;;
2620;SDS011;1320;48.128;11.592;2022-09-01T12:08:53;7.00;;;3.50;;
2620;SDS011;1320;48.128;11.592;2022-09-01T12:11:27;5.40;;;2.83;;
2620;SDS011;1320;48.128;11.592;2022-09-01T12:16:27;6.67;;;3.30;;
2620;SDS011;1320;48.128;11.592;2022-09-01T12:18:54;7.20;;;3.73;;
2620;SDS011;1320;48.128;11.592;2022-09-01T12:23:48;7.17;;;3.47;;
2620;SDS011;1320;48.128;11.592;2022-09-01T12:26:16;6.93;;;3.60;;
2620;SDS011;1320;48.128;11.592;2022-09-01T12:28:44;8.80;;;4.40;;
2620;SDS011;1320;48.128;11.592;2022-09-01T12:31:14;6.20;;;3.23;;
2620;SDS011;1320;48.128;11.592;2022-09-01T12:33:43;5.23;;;3.30;;
2620;SDS011;1320;48.128;11.592;2022-09-01T12:41:41;6.23;;;3.83;;
2620;SDS011;1320;48.128;11.592;2022-09-01T12:44:25;11.20;;;3.83;;
2620;SDS011;1320;48.128;11.592;2022-09-01T12:46:53;6.50;;;4.30;;
2620;SDS011;1320;48.128;11.592;2022-09-01T12:49:23;7.20;;;3.73;;
2620;SDS011;1320;48.128;11.592;2022-09-01T12:52:32;5.37;;;3.00;;
2620;SDS011;1320;48.128;11.592;2022-09-01T12:57:48;5.63;;;3.47;;
2620;SDS011;1320;48.128;11.592;2022-09-01T13:00:20;6.83;;;3.30;;
2620;SDS011;1320;48.128;11.592;2022-09-01T13:03:13;6.80;;;3.80;;
2620;SDS011;1320;48.128;11.592;2022-09-01T13:05:45;9.60;;;3.67;;
2620;SDS011;1320;48.128;11.592;2022-09-01T13:08:19;6.83;;;3.57;;
2620;SDS011;1320;48.128;11.592;2022-09-01T13:11:12;7.43;;;3.97;;
2620;SDS011;1320;48.128;11.592;2022-09-01T13:13:38;6.30;;;3.90;;
2620;SDS011;1320;48.128;11.592;2022-09-01T13:16:04;5.80;;;3.57;;
2620;SDS011;1320;48.128;11.592;2022-09-01T13:18:38;5.80;;;3.50;;
2620;SDS011;1320;48.128;11.592;2022-09-01T13:21:04;6.50;;;4.07;;
2620;SDS011;1320;48.128;11.592;2022-09-01T13:23:31;5.67;;;3.23;;
2620;SDS011;1320;48.128;11.592;2022-09-01T13:25:57;7.37;;;3.97;;
2620;SDS011;1320;48.128;11.592;2022-09-01T13:28:23;6.90;;;3.10;;
2620;SDS011;1320;48.128;11.592;2022-09-01T13:30:54;6.27;;;2.90;;
2620;SDS011;1320;48.128;11.592;2022-09-01T13:33:26;5.83;;;3.57;;
2620;SDS011;1320;48.128;11.592;2022-09-01T13:35:52;5.80;;;3.10;;
2620;SDS011;1320;48.128;11.592;2022-09-01T13:38:19;5.40;;;3.30;;
2620;SDS011;1320;48.128;11.592;2022-09-01T13:40:46;6.00;;;3.10;;
2620;SDS011;1320;48.128;11.592;2022-09-01T13:43:14;7.70;;;3.60;;
2620;SDS011;1320;48.128;11.592;2022-09-01T13:45:41;6.10;;;3.23;;
2620;SDS011;1320;48.128;11.592;2022-09-01T13:48:08;7.40;;;3.30;;
2620;SDS011;1320;48.128;11.592;2022-09-01T13:50:34;5.57;;;3.40;;
2620;SDS011;1320;48.128;11.592;2022-09-01T13:53:02;6.07;;;3.40;;
2620;SDS011;1320;48.128;11.592;2022-09-01T13:55:30;5.20;;;2.73;;
2620;SDS011;1320;48.128;11.592;2022-09-01T13:57:58;6.80;;;3.27;;
2620;SDS011;1320;48.128;11.592;2022-09-01T14:00:25;5.20;;;2.60;;
2620;SDS011;1320;48.128;11.592;2022-09-01T14:02:54;8.63;;;3.40;;
2620;SDS011;1320;48.128;11.592;2022-09-01T14:05:22;7.83;;;3.30;;
2620;SDS011;1320;48.128;11.592;2022-09-01T14:07:52;5.90;;;3.07;;
2620;SDS011;1320;48.128;11.592;2022-09-01T14:10:19;5.50;;;3.10;;
2620;SDS011;1320;48.128;11.592;2022-09-01T14:12:46;5.50;;;3.47;;
2620;SDS011;1320;48.128;11.592;2022-09-01T14:15:13;4.97;;;2.77;;
2620;SDS011;1320;48.128;11.592;2022-09-01T14:17:40;5.30;;;3.00;;
2620;SDS011;1320;48.128;11.592;2022-09-01T14:20:07;7.57;;;4.47;;
2620;SDS011;1320;48.128;11.592;2022-09-01T14:22:39;5.67;;;3.13;;
2620;SDS011;1320;48.128;11.592;2022-09-01T14:25:05;5.23;;;2.73;;
2620;SDS011;1320;48.128;11.592;2022-09-01T14:27:38;5.90;;;3.67;;
2620;SDS011;1320;48.128;11.592;2022-09-01T14:30:05;7.10;;;4.77;;
2620;SDS011;1320;48.128;11.592;2022-09-01T14:32:32;5.87;;;2.80;;
2620;SDS011;1320;48.128;11.592;2022-09-01T14:34:59;5.13;;;3.20;;
2620;SDS011;1320;48.128;11.592;2022-09-01T14:37:24;8.20;;;3.80;;
2620;SDS011;1320;48.128;11.592;2022-09-01T14:39:51;6.87;;;3.67;;
2620;SDS011;1320;48.128;11.592;2022-09-01T14:42:18;5.70;;;3.43;;
2620;SDS011;1320;48.128;11.592;2022-09-01T14:44:45;5.37;;;3.10;;
2620;SDS011;1320;48.128;11.592;2022-09-01T14:47:12;5.07;;;2.80;;
2620;SDS011;1320;48.128;11.592;2022-09-01T14:49:38;6.00;;;3.37;;
2620;SDS011;1320;48.128;11.592;2022-09-01T14:52:04;6.03;;;2.70;;
2620;SDS011;1320;48.128;11.592;2022-09-01T14:54:35;5.30;;;2.80;;
2620;SDS011;1320;48.128;11.592;2022-09-01T14:57:03;5.40;;;2.80;;
2620;SDS011;1320;48.128;11.592;2022-09-01T14:59:29;5.33;;;2.50;;
2620;SDS011;1320;48.128;11.592;2022-09-01T15:01:55;7.10;;;2.57;;
2620;SDS011;1320;48.128;11.592;2022-09-01T15:04:21;6.13;;;2.63;;
2620;SDS011;1320;48.128;11.592;2022-09-01T15:06:46;5.17;;;2.80;;
2620;SDS011;1320;48.128;11.592;2022-09-01T15:09:12;6.83;;;3.70;;
2620;SDS011;1320;48.128;11.592;2022-09-01T15:11:39;6.17;;;3.43;;
2620;SDS011;1320;48.128;11.592;2022-09-01T15:14:05;3.93;;;2.53;;
2620;SDS011;1320;48.128;11.592;2022-09-01T15:16:33;5.10;;;2.70;;
2620;SDS011;1320;48.128;11.592;2022-09-01T15:19:03;4.27;;;3.13;;
2620;SDS011;1320;48.128;11.592;2022-09-01T15:21:30;4.83;;;3.10;;
2620;SDS011;1320;48.128;11.592;2022-09-01T15:23:58;5.97;;;2.93;;
2620;SDS011;1320;48.128;11.592;2022-09-01T15:26:25;5.50;;;3.30;;
2620;SDS011;1320;48.128;11.592;2022-09-01T15:28:51;4.73;;;2.93;;
2620;SDS011;1320;48.128;11.592;2022-09-01T15:31:18;6.43;;;3.03;;
2620;SDS011;1320;48.128;11.592;2022-09-01T15:33:48;5.10;;;2.50;;
2620;SDS011;1320;48.128;11.592;2022-09-01T15:36:19;6.00;;;3.47;;
2620;SDS011;1320;48.128;11.592;2022-09-01T15:38:46;4.80;;;2.63;;
2620;SDS011;1320;48.128;11.592;2022-09-01T15:41:20;4.27;;;2.30;;
2620;SDS011;1320;48.128;11.592;2022-09-01T15:43:47;5.30;;;2.90;;
2620;SDS011;1320;48.128;11.592;2022-09-01T15:46:14;7.37;;;2.97;;
2620;SDS011;1320;48.128;11.592;2022-09-01T15:48:40;5.50;;;3.13;;
2620;SDS011;1320;48.128;11.592;2022-09-01T15:53:45;4.87;;;2.93;;
2620;SDS011;1320;48.128;11.592;2022-09-01T15:56:11;4.23;;;2.40;;
2620;SDS011;1320;48.128;11.592;2022-09-01T15:58:37;5.57;;;2.97;;
2620;SDS011;1320;48.128;11.592;2022-09-01T16:01:02;5.77;;;3.13;;
2620;SDS011;1320;48.128;11.592;2022-09-01T16:03:28;8.33;;;2.60;;
2620;SDS011;1320;48.128;11.592;2022-09-01T16:05:56;6.80;;;2.67;;
2620;SDS011;1320;48.128;11.592;2022-09-01T16:08:24;4.93;;;2.90;;
2620;SDS011;1320;48.128;11.592;2022-09-01T16:10:50;5.37;;;2.60;;
2620;SDS011;1320;48.128;11.592;2022-09-01T16:13:16;5.07;;;2.53;;
2620;SDS011;1320;48.128;11.592;2022-09-01T16:15:53;6.63;;;3.20;;
2620;SDS011;1320;48.128;11.592;2022-09-01T16:21:21;4.17;;;2.20;;
2620;SDS011;1320;48.128;11.592;2022-09-01T16:23:54;4.60;;;2.70;;
2620;SDS011;1320;48.128;11.592;2022-09-01T16:26:20;5.10;;;2.23;;
2620;SDS011;1320;48.128;11.592;2022-09-01T16:28:51;5.07;;;2.83;;
2620;SDS011;1320;48.128;11.592;2022-09-01T16:31:25;5.77;;;2.40;;
2620;SDS011;1320;48.128;11.592;2022-09-01T16:33:54;5.23;;;2.87;;